Time;durP1;ratioP1;P1;durP2;ratioP2;P2;SDS_P1;SDS_P2;PMS_P1;PMS_P2;Temp;Humidity;BMP_temperature;BMP_pressure;BME280_temperature;BME280_humidity;BME280_pressure;Samples;Min_cycle;Max_cycle;Signal;HPM_P1;HPM_P2
2021/05/14 00:01:04;;;;;;;27.90;25.20;;;;;;;13.12;86.74;97403.33;124569;1104;64275;-83
2021/05/14 00:03:32;;;;;;;26.10;23.50;;;;;;;13.09;87.23;97392.95;124595;1104;64336;-83
2021/05/14 00:06:00;;;;;;;22.63;20.37;;;;;;;13.05;87.39;97387.05;124677;1096;64275;-83
2021/05/14 00:08:27;;;;;;;25.37;22.80;;;;;;;13.01;87.40;97388.38;124714;1096;64446;-82
2021/05/14 00:10:54;;;;;;;28.20;25.40;;;;;;;13.01;87.56;97393.73;124628;1104;64380;-83
2021/05/14 00:13:23;;;;;;;26.60;24.10;;;;;;;12.99;87.43;97384.19;124616;1104;64644;-83
2021/05/14 00:15:52;;;;;;;29.13;26.13;;;;;;;12.94;87.87;97385.48;124571;1096;64342;-83
2021/05/14 00:18:19;;;;;;;26.65;23.85;;;;;;;12.92;87.52;97387.47;124638;1104;64361;-83
2021/05/14 00:20:47;;;;;;;29.25;26.20;;;;;;;12.94;87.42;97385.48;124590;1104;64486;-83
2021/05/14 00:23:14;;;;;;;31.20;27.90;;;;;;;13.00;87.58;97388.53;124562;1096;65581;-84
2021/05/14 00:25:41;;;;;;;31.17;28.00;;;;;;;13.04;87.48;97395.25;124553;1104;64358;-83
2021/05/14 00:28:09;;;;;;;30.43;27.13;;;;;;;13.10;87.54;97400.80;124605;1096;64332;-83
2021/05/14 00:30:38;;;;;;;32.03;28.83;;;;;;;13.09;87.31;97399.13;124591;1096;64362;-84
2021/05/14 00:33:05;;;;;;;30.93;27.17;;;;;;;13.05;87.29;97396.92;124585;1104;64371;-81
2021/05/14 00:35:33;;;;;;;33.07;29.57;;;;;;;13.04;87.33;97398.77;124558;1105;64493;-83
2021/05/14 00:38:00;;;;;;;34.60;31.00;;;;;;;13.03;87.33;97397.06;124563;1104;64410;-82
2021/05/14 00:40:27;;;;;;;33.90;29.33;;;;;;;13.00;87.42;97397.38;124589;1104;64310;-82
2021/05/14 00:42:54;;;;;;;33.30;30.10;;;;;;;12.99;87.53;97395.72;124541;1104;64274;-82
2021/05/14 00:45:22;;;;;;;33.33;29.80;;;;;;;12.98;87.41;97398.53;124560;1104;64441;-83
2021/05/14 00:47:49;;;;;;;33.80;28.30;;;;;;;12.99;87.61;97398.39;124616;1104;64368;-82
2021/05/14 00:50:17;;;;;;;30.70;26.83;;;;;;;12.98;87.58;97388.70;124592;1104;64345;-83
2021/05/14 00:52:45;;;;;;;32.67;27.60;;;;;;;12.94;87.64;97390.00;124569;1096;64323;-83
2021/05/14 00:55:12;;;;;;;28.35;25.45;;;;;;;12.92;87.78;97386.64;124600;1104;64310;-83
2021/05/14 00:57:40;;;;;;;32.67;29.03;;;;;;;12.93;87.53;97391.01;124559;1096;64364;-83
2021/05/14 01:00:09;;;;;;;32.07;28.87;;;;;;;12.96;87.73;97380.83;124525;1104;64486;-82
2021/05/14 01:02:36;;;;;;;31.67;28.27;;;;;;;13.00;87.73;97386.69;124578;1096;64891;-83
2021/05/14 01:05:04;;;;;;;31.65;28.35;;;;;;;12.99;87.57;97381.52;124532;1104;64329;-83
2021/05/14 01:07:31;;;;;;;29.90;26.87;;;;;;;12.95;87.41;97391.67;124553;1104;64323;-82
2021/05/14 01:10:00;;;;;;;28.77;25.83;;;;;;;12.91;87.57;97380.45;124595;1104;64331;-83
2021/05/14 01:12:27;;;;;;;27.03;24.17;;;;;;;12.93;87.68;97388.34;124559;1096;64923;-82
2021/05/14 01:14:54;;;;;;;28.55;24.55;;;;;;;12.91;88.01;97377.78;124549;1094;64326;-81
2021/05/14 01:17:22;;;;;;;28.35;25.35;;;;;;;12.88;87.91;97380.78;124551;1104;64660;-83
2021/05/14 01:19:50;;;;;;;36.80;30.75;;;;;;;12.85;88.06;97383.77;124538;1104;64338;-82
2021/05/14 01:22:18;;;;;;;37.05;33.15;;;;;;;12.82;88.23;97380.55;124543;1096;64476;-83
2021/05/14 01:24:46;;;;;;;37.47;33.47;;;;;;;12.80;88.03;97395.94;124590;1096;64326;-83
2021/05/14 01:27:13;;;;;;;36.63;32.83;;;;;;;12.80;88.37;97386.07;124528;1096;64296;-82
2021/05/14 01:29:42;;;;;;;34.57;30.83;;;;;;;12.79;88.46;97383.54;124546;1096;64912;-85
2021/05/14 01:32:10;;;;;;;31.40;27.93;;;;;;;12.76;88.72;97374.00;124577;1096;64250;-82
2021/05/14 01:34:37;;;;;;;33.73;30.10;;;;;;;12.74;88.57;97382.19;124530;1104;64348;-82
2021/05/14 01:37:05;;;;;;;31.13;26.90;;;;;;;12.70;88.46;97380.81;124607;1096;64371;-82
2021/05/14 01:39:32;;;;;;;29.13;26.07;;;;;;;12.69;88.61;97380.95;124719;1104;64319;-83
2021/05/14 01:41:59;;;;;;;26.87;24.07;;;;;;;12.71;88.59;97384.31;124767;1104;64335;-83
2021/05/14 01:44:27;;;;;;;26.70;23.87;;;;;;;12.71;88.79;97387.82;124712;1104;64275;-82
2021/05/14 01:46:54;;;;;;;26.43;23.67;;;;;;;12.71;88.81;97378.97;124648;1104;64323;-83
2021/05/14 01:49:21;;;;;;;26.13;23.20;;;;;;;12.72;88.49;97376.16;124686;1104;64451;-83
2021/05/14 01:51:49;;;;;;;24.37;21.80;;;;;;;12.76;88.74;97378.52;124570;1104;64715;-83
2021/05/14 01:54:17;;;;;;;25.87;22.37;;;;;;;12.74;88.55;97381.33;124571;1104;64403;-83
2021/05/14 01:56:49;;;;;;;25.73;21.30;;;;;;;12.75;88.55;97383.02;124544;1104;64406;-83
2021/05/14 01:59:16;;;;;;;27.30;22.83;;;;;;;12.76;88.54;97384.69;124591;1096;64323;-82
2021/05/14 02:01:44;;;;;;;23.40;20.73;;;;;;;12.75;88.47;97393.72;124827;1095;64355;-84
2021/05/14 02:04:12;;;;;;;26.17;20.33;;;;;;;12.76;88.59;97392.71;124833;1101;64453;-82
2021/05/14 02:06:39;;;;;;;27.60;21.33;;;;;;;12.76;88.55;97394.55;124905;1101;64326;-83
2021/05/14 02:09:06;;;;;;;25.23;22.63;;;;;;;12.77;88.48;97401.56;124860;1097;64315;-81
2021/05/14 02:11:34;;;;;;;25.07;21.27;;;;;;;12.82;88.52;97402.80;124805;1101;64361;-83
2021/05/14 02:14:02;;;;;;;24.60;21.37;;;;;;;12.83;88.46;97403.63;124887;1101;64390;-83
2021/05/14 02:16:29;;;;;;;26.77;23.87;;;;;;;12.82;88.32;97412.63;124855;1097;64335;-84
2021/05/14 02:18:56;;;;;;;27.90;24.90;;;;;;;12.82;88.60;97413.49;124836;1101;64332;-82
2021/05/14 02:21:24;;;;;;;29.53;26.30;;;;;;;12.80;88.35;97415.48;124894;1101;64322;-83
2021/05/14 02:23:51;;;;;;;31.00;26.03;;;;;;;12.82;88.41;97413.49;124799;1101;64402;-83
2021/05/14 02:26:18;;;;;;;29.70;26.50;;;;;;;12.82;88.28;97416.17;124596;1096;64419;-83
2021/05/14 02:28:45;;;;;;;32.07;28.17;;;;;;;12.82;88.20;97416.17;124659;1103;64252;-83
2021/05/14 02:31:13;;;;;;;31.80;28.05;;;;;;;12.83;88.30;97417.84;124863;1096;64331;-82
2021/05/14 02:33:40;;;;;;;28.97;24.30;;;;;;;12.82;88.20;97417.98;124863;1101;64802;-82
2021/05/14 02:36:07;;;;;;;33.03;29.43;;;;;;;12.78;88.15;97416.63;124834;1096;64365;-82
2021/05/14 02:38:34;;;;;;;32.60;29.00;;;;;;;12.78;88.31;97420.13;124826;1097;64294;-83
2021/05/14 02:41:04;;;;;;;34.87;28.50;;;;;;;12.79;88.07;97418.30;124806;1096;64332;-83
2021/05/14 02:43:32;;;;;;;32.30;28.80;;;;;;;12.79;88.12;97415.62;124619;1096;64362;-83
2021/05/14 02:45:59;;;;;;;30.40;27.17;;;;;;;12.78;88.02;97420.13;124866;1101;64246;-83
2021/05/14 02:48:26;;;;;;;31.40;27.90;;;;;;;12.75;87.85;97420.45;124841;1097;64467;-83
2021/05/14 02:50:53;;;;;;;30.07;26.97;;;;;;;12.71;87.82;97419.90;124858;1097;64298;-83
2021/05/14 02:53:20;;;;;;;31.90;27.30;;;;;;;12.71;88.04;97421.73;124853;1101;64246;-83
2021/05/14 02:55:48;;;;;;;32.77;28.90;;;;;;;12.74;87.94;97416.94;124864;1097;64438;-83
2021/05/14 02:58:15;;;;;;;28.70;24.97;;;;;;;12.76;88.02;97427.46;124871;1097;64661;-83
2021/05/14 03:00:44;;;;;;;29.93;26.03;;;;;;;12.77;88.10;97422.95;124796;1097;64349;-83
2021/05/14 03:03:11;;;;;;;27.13;24.20;;;;;;;12.79;87.96;97421.80;124833;1096;64331;-83
2021/05/14 03:05:38;;;;;;;28.35;23.80;;;;;;;12.78;87.91;97421.97;124891;1097;64326;-83
2021/05/14 03:08:06;;;;;;;31.13;27.73;;;;;;;12.74;87.83;97424.09;124643;1103;64337;-84
2021/05/14 03:10:33;;;;;;;33.20;29.33;;;;;;;12.72;87.92;97424.27;124835;1101;64275;-84
2021/05/14 03:13:00;;;;;;;42.30;35.45;;;;;;;12.69;87.80;97426.39;124836;1101;64799;-83
2021/05/14 03:15:28;;;;;;;48.25;42.35;;;;;;;12.69;87.72;97431.73;124880;1097;64403;-81
2021/05/14 03:17:55;;;;;;;41.63;35.73;;;;;;;12.66;87.62;97429.38;124873;1101;64322;-82
2021/05/14 03:20:22;;;;;;;43.10;37.20;;;;;;;12.67;87.83;97442.60;124577;1101;64333;-83
2021/05/14 03:22:49;;;;;;;39.95;33.20;;;;;;;12.69;87.88;97435.28;124843;1101;64409;-83
2021/05/14 03:25:16;;;;;;;31.93;27.33;;;;;;;12.71;87.78;97441.28;124859;1101;64323;-82
2021/05/14 03:27:44;;;;;;;28.20;25.13;;;;;;;12.71;87.67;97440.45;124862;1101;64477;-83
2021/05/14 03:30:11;;;;;;;27.47;24.60;;;;;;;12.71;87.60;97449.30;124888;1097;64367;-83
2021/05/14 03:32:39;;;;;;;27.73;24.47;;;;;;;12.72;87.81;97442.98;124871;1101;64278;-83
2021/05/14 03:35:07;;;;;;;25.57;22.33;;;;;;;12.76;87.74;97443.50;124847;1101;64264;-83
2021/05/14 03:37:34;;;;;;;24.55;22.05;;;;;;;12.80;87.92;97444.05;124838;1101;64403;-84
2021/05/14 03:40:04;;;;;;;26.70;23.80;;;;;;;12.81;87.43;97446.55;124835;1097;64330;-85
2021/05/14 03:42:31;;;;;;;25.17;22.33;;;;;;;12.78;87.33;97457.56;124850;1097;64357;-83
2021/05/14 03:44:58;;;;;;;24.47;21.77;;;;;;;12.79;87.53;97463.73;124987;1096;64428;-83
2021/05/14 03:47:26;;;;;;;25.85;21.85;;;;;;;12.79;87.43;97467.24;124871;1101;64249;-82
2021/05/14 03:49:53;;;;;;;25.07;22.20;;;;;;;12.77;87.35;97466.58;124916;1097;64253;-82
2021/05/14 03:52:20;;;;;;;24.93;21.17;;;;;;;12.80;87.56;97478.80;124939;1101;64445;-82
2021/05/14 03:54:47;;;;;;;20.90;18.70;;;;;;;12.81;87.49;97469.78;124898;1101;64346;-83
2021/05/14 03:57:15;;;;;;;23.73;21.17;;;;;;;12.83;87.56;97471.30;124866;1101;64358;-83
2021/05/14 03:59:42;;;;;;;22.80;20.40;;;;;;;12.86;87.35;97475.50;124921;1096;64331;-82
2021/05/14 04:02:10;;;;;;;23.93;20.77;;;;;;;12.87;87.46;97472.66;124630;1097;64476;-82
2021/05/14 04:04:37;;;;;;;26.37;23.00;;;;;;;12.90;87.23;97479.53;124927;1097;64416;-82
2021/05/14 04:07:05;;;;;;;25.37;22.67;;;;;;;12.95;87.38;97479.91;124896;1101;64759;-83
2021/05/14 04:09:36;;;;;;;27.13;24.23;;;;;;;12.98;87.09;97476.09;124853;1101;64342;-82
2021/05/14 04:12:16;;;;;;;27.37;24.43;;;;;;;12.99;87.07;97483.13;124835;1101;64326;-84
2021/05/14 04:14:43;;;;;;;24.30;21.67;;;;;;;13.00;86.99;97482.95;124856;1101;64326;-83
2021/05/14 04:17:10;;;;;;;23.37;20.33;;;;;;;12.99;86.95;97488.48;124816;1096;64380;-84
2021/05/14 04:19:37;;;;;;;21.93;18.67;;;;;;;12.96;86.87;97484.28;124871;1101;64323;-84
2021/05/14 04:22:06;;;;;;;25.63;20.47;;;;;;;12.95;86.93;97480.77;124903;1096;64276;-83
2021/05/14 04:24:34;;;;;;;24.67;21.87;;;;;;;12.97;86.96;97483.27;124895;1096;64275;-83
2021/05/14 04:27:01;;;;;;;28.53;25.47;;;;;;;12.95;86.69;97474.56;124599;1102;64453;-84
2021/05/14 04:29:28;;;;;;;31.37;28.07;;;;;;;12.94;86.82;97481.75;124909;1097;64377;-83
2021/05/14 04:31:55;;;;;;;31.57;28.17;;;;;;;12.96;86.81;97478.94;124895;1101;64358;-83
2021/05/14 04:34:25;;;;;;;35.97;32.00;;;;;;;12.98;86.91;97478.76;124859;1102;64311;-83
2021/05/14 04:36:52;;;;;;;39.85;34.53;;;;;;;13.02;86.85;97486.33;124883;1101;64326;-82
2021/05/14 04:39:19;;;;;;;43.13;35.97;;;;;;;13.00;86.54;97487.47;124826;1097;64413;-83
2021/05/14 04:41:46;;;;;;;44.57;36.73;;;;;;;12.99;86.82;97477.78;124870;1101;64489;-83
2021/05/14 04:44:15;;;;;;;41.10;36.03;;;;;;;12.99;86.74;97480.45;124637;1097;64332;-83
2021/05/14 04:46:44;;;;;;;41.13;35.23;;;;;;;12.96;86.66;97494.98;124861;1101;64335;-83
2021/05/14 04:49:12;;;;;;;41.00;32.35;;;;;;;12.96;86.97;97490.46;124871;1101;64304;-83
2021/05/14 04:51:39;;;;;;;32.57;28.00;;;;;;;12.92;86.76;97490.92;124833;1101;64425;-83
2021/05/14 04:54:08;;;;;;;32.40;27.07;;;;;;;12.91;86.86;97487.41;124860;1101;64409;-83
2021/05/14 04:56:35;;;;;;;31.23;24.10;;;;;;;12.93;86.93;97498.80;124874;1101;64304;-83
2021/05/14 04:59:02;;;;;;;31.55;26.55;;;;;;;12.94;86.53;97497.79;124890;1097;64211;-82
2021/05/14 05:01:30;;;;;;;28.47;24.73;;;;;;;13.01;86.80;97495.36;124913;1101;64358;-83
2021/05/14 05:03:59;;;;;;;27.70;23.37;;;;;;;13.08;86.64;97501.74;124838;1096;64490;-84
2021/05/14 05:06:26;;;;;;;28.50;23.63;;;;;;;13.13;86.40;97509.31;124893;1097;64207;-81
2021/05/14 05:08:55;;;;;;;24.77;21.40;;;;;;;13.20;86.34;97506.87;124770;1097;64300;-83
2021/05/14 05:11:23;;;;;;;22.70;19.15;;;;;;;13.25;86.27;97494.70;124911;1101;64376;-83
2021/05/14 05:13:50;;;;;;;20.60;17.90;;;;;;;13.29;86.21;97495.24;124915;1101;64368;-82
2021/05/14 05:16:17;;;;;;;21.97;16.73;;;;;;;13.37;86.01;97497.97;124847;1097;64470;-82
2021/05/14 05:18:44;;;;;;;19.03;15.77;;;;;;;13.47;85.84;97506.74;124889;1101;64454;-82
2021/05/14 05:21:12;;;;;;;17.93;16.10;;;;;;;13.51;85.76;97502.77;124894;1101;64323;-82
2021/05/14 05:23:40;;;;;;;19.73;17.50;;;;;;;13.55;85.70;97508.63;124656;1101;64383;-83
2021/05/14 05:26:07;;;;;;;21.07;18.70;;;;;;;13.59;85.41;97505.48;124635;1097;64338;-82
2021/05/14 05:28:34;;;;;;;21.53;18.83;;;;;;;13.65;85.50;97506.69;124911;1101;64467;-83
2021/05/14 05:31:01;;;;;;;24.40;21.80;;;;;;;13.65;85.29;97509.37;124778;1101;64657;-83
2021/05/14 05:33:29;;;;;;;25.43;22.50;;;;;;;13.67;85.42;97514.58;124889;1101;64418;-83
2021/05/14 05:35:56;;;;;;;26.60;23.73;;;;;;;13.61;85.22;97514.20;124953;1101;64323;-82
2021/05/14 05:38:24;;;;;;;27.37;24.40;;;;;;;13.52;85.29;97520.49;124915;1101;64358;-83
2021/05/14 05:40:52;;;;;;;28.50;25.20;;;;;;;13.49;85.25;97512.78;125022;1101;65349;-82
2021/05/14 05:43:20;;;;;;;31.30;26.73;;;;;;;13.49;85.46;97519.98;125049;1102;64349;-84
2021/05/14 05:45:47;;;;;;;26.00;23.17;;;;;;;13.50;85.28;97529.67;125218;1101;64413;-83
2021/05/14 05:48:15;;;;;;;28.97;23.43;;;;;;;13.50;85.40;97532.35;125152;1097;64492;-83
2021/05/14 05:50:43;;;;;;;31.70;26.87;;;;;;;13.51;85.35;97529.53;124955;1101;64332;-83
2021/05/14 05:53:11;;;;;;;27.97;24.20;;;;;;;13.60;85.23;97536.59;125006;1101;64286;-83
2021/05/14 05:55:39;;;;;;;34.10;26.57;;;;;;;13.72;85.23;97525.65;125118;1101;64425;-81
2021/05/14 05:58:14;;;;;;;32.47;28.07;;;;;;;13.84;84.96;97538.58;125173;1097;64329;-82
2021/05/14 06:00:42;;;;;;;33.63;27.07;;;;;;;13.97;85.10;97540.83;125168;1101;64838;-83
2021/05/14 06:03:11;;;;;;;29.10;24.77;;;;;;;14.05;84.71;97538.19;125137;1101;64326;-83
2021/05/14 06:05:38;;;;;;;27.00;24.05;;;;;;;14.11;84.64;97535.86;125234;1101;64329;-82
2021/05/14 06:08:07;;;;;;;24.63;21.40;;;;;;;14.19;83.92;97544.80;125408;1101;64274;-83
2021/05/14 06:10:35;;;;;;;22.03;18.47;;;;;;;14.30;84.07;97545.48;125023;1101;64638;-84
2021/05/14 06:13:03;;;;;;;27.40;21.40;;;;;;;14.31;83.68;97553.38;125044;1096;64326;-83
2021/05/14 06:15:30;;;;;;;26.27;20.93;;;;;;;14.30;83.64;97551.70;125085;1101;64361;-86
2021/05/14 06:17:58;;;;;;;27.37;22.00;;;;;;;14.33;83.48;97558.58;125163;1101;64246;-85
2021/05/14 06:20:27;;;;;;;25.10;22.40;;;;;;;14.41;83.68;97567.48;125106;1101;64667;-84
2021/05/14 06:22:55;;;;;;;23.40;19.35;;;;;;;14.43;82.95;97554.77;125083;1101;64339;-85
2021/05/14 06:25:22;;;;;;;26.97;22.03;;;;;;;14.40;83.21;97563.14;124931;1101;64336;-82
2021/05/14 06:27:50;;;;;;;25.63;21.40;;;;;;;14.50;83.03;97565.66;124755;1101;64419;-83
2021/05/14 06:30:19;;;;;;;22.20;18.70;;;;;;;14.58;82.58;97570.25;124876;1101;64411;-83
2021/05/14 06:32:47;;;;;;;27.37;20.30;;;;;;;14.64;82.57;97567.77;125058;1101;64285;-83
2021/05/14 06:35:14;;;;;;;25.07;19.27;;;;;;;14.68;82.57;97571.78;124672;1101;64332;-84
2021/05/14 06:37:46;;;;;;;22.87;19.27;;;;;;;14.62;82.50;97582.34;124752;1097;64425;-82
2021/05/14 06:40:14;;;;;;;26.80;20.73;;;;;;;14.68;82.46;97582.51;124839;1097;64326;-83
2021/05/14 06:42:41;;;;;;;23.70;21.00;;;;;;;14.85;81.97;97585.23;124572;1096;64305;-83
2021/05/14 06:45:11;;;;;;;25.83;22.08;;;;;;;15.00;81.02;97582.75;124875;1101;64288;-83
2021/05/14 06:47:39;;;;;;;23.47;20.20;;;;;;;15.28;81.17;97583.30;124859;1101;64361;-83
2021/05/14 06:50:07;;;;;;;26.07;20.87;;;;;;;15.54;80.43;97585.81;124912;1096;64303;-84
2021/05/14 06:52:36;;;;;;;25.90;21.27;;;;;;;15.69;80.08;97586.84;124604;1101;64426;-82
2021/05/14 06:55:06;;;;;;;25.57;21.37;;;;;;;15.71;79.50;97592.03;124847;1101;64399;-83
2021/05/14 06:57:34;;;;;;;25.03;21.15;;;;;;;15.84;79.67;97591.52;124964;1101;64427;-83
2021/05/14 07:00:04;;;;;;;24.57;20.57;;;;;;;15.95;78.45;97593.83;124859;1101;64358;-83
2021/05/14 07:02:32;;;;;;;24.57;19.53;;;;;;;16.08;79.08;97596.83;124954;1097;64313;-83
2021/05/14 07:05:00;;;;;;;22.17;19.73;;;;;;;16.23;78.06;97591.59;124881;1101;64352;-82
2021/05/14 07:07:29;;;;;;;25.03;20.40;;;;;;;16.41;78.27;97597.58;124858;1101;64756;-82
2021/05/14 07:09:56;;;;;;;26.37;20.10;;;;;;;16.66;78.00;97597.45;124582;1102;64801;-84
2021/05/14 07:12:24;;;;;;;22.93;20.53;;;;;;;16.73;77.16;97601.13;124853;1101;64246;-84
2021/05/14 07:14:51;;;;;;;22.47;19.27;;;;;;;16.65;76.59;97604.70;124885;1101;64412;-84
2021/05/14 07:17:18;;;;;;;21.80;19.50;;;;;;;16.41;74.73;97610.19;124909;1096;64249;-83
2021/05/14 07:19:46;;;;;;;20.33;18.00;;;;;;;16.17;75.93;97608.41;124778;1101;64415;-83
2021/05/14 07:22:14;;;;;;;25.70;20.73;;;;;;;16.02;76.82;97605.59;124867;1097;64303;-83
2021/05/14 07:24:42;;;;;;;22.30;20.00;;;;;;;15.88;76.51;97609.81;124900;1101;64768;-83
2021/05/14 07:27:10;;;;;;;23.23;20.73;;;;;;;15.70;76.89;97617.22;124595;1101;64370;-83
2021/05/14 07:29:37;;;;;;;22.37;19.80;;;;;;;15.53;77.37;97627.08;124876;1101;64246;-82
2021/05/14 07:32:05;;;;;;;23.27;20.87;;;;;;;15.36;76.77;97635.13;124901;1097;64464;-82
2021/05/14 07:34:32;;;;;;;23.43;19.90;;;;;;;15.09;77.18;97624.70;124896;1096;64776;-82
2021/05/14 07:37:00;;;;;;;22.37;19.70;;;;;;;15.00;77.83;97634.55;124642;1096;64336;-82
2021/05/14 07:39:27;;;;;;;23.97;19.27;;;;;;;15.06;78.33;97630.38;124648;1097;64396;-82
2021/05/14 07:41:55;;;;;;;23.93;21.17;;;;;;;15.18;78.53;97630.91;124876;1097;64252;-82
2021/05/14 07:44:22;;;;;;;24.45;21.30;;;;;;;15.19;77.79;97635.27;124819;1097;64718;-83
2021/05/14 07:46:50;;;;;;;24.73;20.23;;;;;;;15.25;77.92;97640.00;124864;1096;64326;-83
2021/05/14 07:49:18;;;;;;;25.00;19.53;;;;;;;15.34;77.69;97634.45;124840;1101;64213;-82
2021/05/14 07:51:45;;;;;;;22.73;19.73;;;;;;;15.51;77.99;97642.54;124887;1101;64364;-83
2021/05/14 07:54:12;;;;;;;20.50;18.40;;;;;;;15.65;77.39;97649.92;124880;1096;64322;-83
2021/05/14 07:56:40;;;;;;;19.80;16.85;;;;;;;15.73;77.09;97649.11;124857;1097;64403;-84
2021/05/14 07:59:08;;;;;;;20.30;17.50;;;;;;;15.87;76.92;97636.84;124861;1097;64687;-82
2021/05/14 08:01:35;;;;;;;21.03;17.63;;;;;;;15.97;76.42;97649.08;124909;1097;64320;-83
2021/05/14 08:04:03;;;;;;;21.97;19.63;;;;;;;15.87;76.17;97651.10;124822;1101;64243;-83
2021/05/14 08:06:30;;;;;;;22.73;19.80;;;;;;;15.75;76.17;97650.63;124925;1097;64329;-83
2021/05/14 08:09:00;;;;;;;21.37;19.00;;;;;;;15.65;76.31;97654.45;124819;1096;64361;-82
2021/05/14 08:11:27;;;;;;;21.08;18.88;;;;;;;15.50;76.41;97660.47;124698;1102;64459;-84
2021/05/14 08:13:54;;;;;;;20.70;18.60;;;;;;;15.31;76.20;97658.94;124842;1097;64351;-83
2021/05/14 08:16:21;;;;;;;22.30;18.83;;;;;;;15.09;76.40;97660.42;124834;1101;64249;-83
2021/05/14 08:18:51;;;;;;;22.33;19.93;;;;;;;14.98;77.15;97662.55;124872;1101;64326;-82
2021/05/14 08:21:20;;;;;;;22.38;20.18;;;;;;;14.93;77.52;97657.70;124852;1101;64390;-82
2021/05/14 08:23:47;;;;;;;24.65;20.85;;;;;;;14.89;77.81;97665.21;124945;1101;64489;-83
2021/05/14 08:26:14;;;;;;;24.27;20.83;;;;;;;14.88;78.23;97662.71;124585;1101;64281;-82
2021/05/14 08:28:42;;;;;;;25.20;21.33;;;;;;;14.99;78.40;97665.08;124928;1096;64300;-82
2021/05/14 08:31:09;;;;;;;24.63;20.80;;;;;;;15.06;78.17;97663.44;124872;1101;64323;-82
2021/05/14 08:33:36;;;;;;;24.20;20.33;;;;;;;15.18;78.03;97668.48;124581;1096;64374;-84
2021/05/14 08:36:04;;;;;;;22.75;20.20;;;;;;;15.23;78.24;97674.20;124872;1102;64338;-82
2021/05/14 08:38:32;;;;;;;21.03;18.33;;;;;;;15.20;77.62;97680.73;124835;1101;64272;-83
2021/05/14 08:41:04;;;;;;;22.13;19.83;;;;;;;15.10;77.53;97677.36;124962;1101;64336;-82
2021/05/14 08:43:32;;;;;;;22.37;19.53;;;;;;;15.01;77.74;97681.87;124907;1101;64309;-82
2021/05/14 08:46:02;;;;;;;22.20;18.60;;;;;;;14.90;78.17;97680.33;124873;1097;64303;-84
2021/05/14 08:48:31;;;;;;;20.93;17.33;;;;;;;14.88;77.96;97682.33;124609;1101;64579;-84
2021/05/14 08:51:11;;;;;;;20.33;18.33;;;;;;;14.81;78.09;97677.77;124935;1101;64300;-83
2021/05/14 08:53:40;;;;;;;19.97;17.40;;;;;;;14.73;78.23;97683.09;124665;1096;64345;-84
2021/05/14 08:56:07;;;;;;;20.47;18.37;;;;;;;14.75;78.30;97689.15;124862;1101;64322;-84
2021/05/14 08:58:37;;;;;;;22.13;18.87;;;;;;;14.75;78.76;97684.62;124861;1101;64367;-84
2021/05/14 09:01:05;;;;;;;20.25;16.65;;;;;;;14.82;78.60;97688.31;124891;1097;64720;-84
2021/05/14 09:03:32;;;;;;;18.70;16.70;;;;;;;14.94;78.37;97694.23;124877;1101;64355;-82
2021/05/14 09:06:00;;;;;;;15.57;13.97;;;;;;;15.01;78.67;97695.28;124681;1101;64251;-86
2021/05/14 09:08:32;;;;;;;15.15;13.10;;;;;;;15.27;78.35;97697.02;124962;1097;64246;-84
2021/05/14 09:10:59;;;;;;;14.35;12.85;;;;;;;15.55;77.58;97697.58;124952;1101;64495;-83
2021/05/14 09:13:39;;;;;;;15.80;13.90;;;;;;;15.67;77.20;97707.00;124808;1095;64492;-85
2021/05/14 09:16:06;;;;;;;17.90;16.00;;;;;;;15.83;77.50;97705.36;124988;1097;64329;-83
2021/05/14 09:18:34;;;;;;;16.13;14.47;;;;;;;16.08;76.83;97709.70;124872;1097;64248;-86
2021/05/14 09:21:03;;;;;;;16.37;14.77;;;;;;;16.23;76.19;97702.64;124633;1102;64352;-83
2021/05/14 09:23:36;;;;;;;14.73;13.23;;;;;;;16.21;76.47;97714.56;124883;1097;64358;-84
2021/05/14 09:26:07;;;;;;;14.00;11.97;;;;;;;16.05;76.85;97725.34;124861;1101;64358;-83
2021/05/14 09:28:44;;;;;;;12.57;11.30;;;;;;;15.85;76.25;97719.44;124869;1101;64335;-84
2021/05/14 09:31:21;;;;;;;13.63;12.23;;;;;;;15.69;76.51;97723.83;124874;1101;64336;-82
2021/05/14 09:33:53;;;;;;;13.07;11.80;;;;;;;15.59;76.79;97733.84;124889;1101;64357;-83
2021/05/14 09:36:29;;;;;;;13.83;12.20;;;;;;;15.57;76.95;97727.80;124847;1096;64252;-83
2021/05/14 09:39:03;;;;;;;12.80;11.60;;;;;;;15.62;76.88;97728.14;124639;1096;64338;-82
2021/05/14 09:41:39;;;;;;;12.43;11.23;;;;;;;15.75;76.37;97731.20;124875;1101;64333;-83
2021/05/14 09:44:14;;;;;;;11.40;10.30;;;;;;;15.86;75.79;97738.09;124911;1101;64357;-83
2021/05/14 09:46:46;;;;;;;11.25;10.15;;;;;;;16.15;75.39;97736.76;124843;1097;64342;-83
2021/05/14 09:49:17;;;;;;;12.17;10.53;;;;;;;16.50;75.35;97734.70;124561;1101;64415;-83
2021/05/14 09:51:53;;;;;;;11.10;10.00;;;;;;;16.70;74.76;97740.55;124871;1101;64448;-84
2021/05/14 09:54:28;;;;;;;12.20;10.90;;;;;;;16.85;74.29;97736.13;124708;1096;64287;-83
2021/05/14 10:00:09;;;;;;;10.87;9.87;;;;;;;17.17;73.55;97734.33;124818;1096;64276;-84
2021/05/14 10:02:38;;;;;;;11.97;10.77;;;;;;;17.16;73.54;97728.11;124888;1101;64416;-83
2021/05/14 10:05:12;;;;;;;11.03;9.93;;;;;;;17.17;72.25;97735.19;124906;1101;64344;-83
2021/05/14 10:07:42;;;;;;;9.73;8.73;;;;;;;17.21;72.71;97741.05;124877;1096;64323;-83
2021/05/14 10:10:11;;;;;;;9.20;8.30;;;;;;;17.24;72.33;97743.39;124939;1101;64432;-84
2021/05/14 10:12:39;;;;;;;10.77;9.70;;;;;;;17.09;72.22;97748.69;124926;1101;64275;-83
2021/05/14 10:15:12;;;;;;;10.63;9.70;;;;;;;16.98;72.75;97754.43;124864;1101;64391;-82
2021/05/14 10:17:46;;;;;;;12.57;11.37;;;;;;;16.95;73.08;97746.70;124936;1097;64333;-83
2021/05/14 10:20:18;;;;;;;12.70;11.57;;;;;;;16.81;73.65;97743.72;124837;1096;64355;-83
2021/05/14 10:22:49;;;;;;;12.00;11.00;;;;;;;16.61;73.69;97747.77;124911;1101;64371;-83
2021/05/14 10:25:48;;;;;;;12.13;10.33;;;;;;;16.48;74.30;97755.53;124654;1101;64396;-83
2021/05/14 10:28:19;;;;;;;10.20;9.10;;;;;;;16.26;74.62;97752.53;124907;1097;64448;-83
2021/05/14 10:31:04;;;;;;;11.13;10.03;;;;;;;16.14;75.09;97757.43;125237;1096;64351;-83
2021/05/14 10:33:45;;;;;;;9.90;8.90;;;;;;;16.02;75.38;97766.82;125098;1101;64403;-84
2021/05/14 10:36:26;;;;;;;13.65;10.90;;;;;;;15.85;75.01;97757.06;124827;1096;64438;-83
2021/05/14 10:39:09;;;;;;;10.25;9.25;;;;;;;15.64;75.43;97761.05;124912;1101;64323;-83
2021/05/14 10:42:00;;;;;;;11.53;10.37;;;;;;;15.55;75.70;97765.54;125455;1101;64251;-88
2021/05/14 10:44:53;;;;;;;13.73;12.53;;;;;;;15.48;76.12;97764.54;125661;1102;64331;-87
2021/05/14 10:47:26;;;;;;;11.75;10.65;;;;;;;15.49;75.96;97771.58;125457;1102;64524;-88
2021/05/14 10:50:05;;;;;;;12.53;11.23;;;;;;;15.52;76.37;97771.25;126097;1097;64204;-88
2021/05/14 10:52:33;;;;;;;12.20;11.10;;;;;;;15.54;76.28;97777.30;125711;1097;64327;-87
2021/05/14 10:55:01;;;;;;;14.80;13.40;;;;;;;15.58;76.31;97773.27;125580;1101;64329;-87
2021/05/14 10:57:47;;;;;;;14.17;12.83;;;;;;;15.64;76.55;97782.53;125205;1101;64451;-87
2021/05/14 11:00:24;;;;;;;12.77;11.53;;;;;;;15.79;76.30;97783.58;125364;1097;64276;-88
2021/05/14 11:03:21;;;;;;;15.40;9.73;;;;;;;15.88;75.18;97783.62;125671;1101;64275;-87
2021/05/14 11:06:07;;;;;;;11.20;10.10;;;;;;;15.67;76.33;97784.89;125977;1101;64478;-87
2021/05/14 11:08:34;;;;;;;11.20;10.07;;;;;;;15.65;76.35;97786.89;125871;1096;64754;-87
2021/05/14 11:11:09;;;;;;;9.53;8.50;;;;;;;15.67;76.19;97795.63;125308;1097;64352;-86
2021/05/14 11:13:47;;;;;;;7.60;6.90;;;;;;;15.65;76.09;97794.95;125268;1102;64416;-87
2021/05/14 11:16:34;;;;;;;8.00;7.00;;;;;;;15.56;75.91;97799.47;125216;1097;64326;-89
2021/05/14 11:19:18;;;;;;;7.17;6.47;;;;;;;15.55;76.07;97797.77;125389;1096;64374;-88
2021/05/14 11:21:59;;;;;;;14.90;8.90;;;;;;;15.53;76.14;97804.30;125137;1101;64335;-87